sensor_id;sensor_type;location;lat;lon;timestamp;pressure;altitude;pressure_sealevel;temperature
29701;BMP280;57917;51.380;-0.176;2023-03-14T00:00:30;98388.44;;;11.63
29701;BMP280;57917;51.380;-0.176;2023-03-14T00:06:17;98404.38;;;11.51
29701;BMP280;57917;51.380;-0.176;2023-03-14T00:12:11;98394.91;;;11.38
29701;BMP280;57917;51.380;-0.176;2023-03-14T00:33:39;98425.28;;;11.16
29701;BMP280;57917;51.380;-0.176;2023-03-14T00:39:55;98415.56;;;11.08
29701;BMP280;57917;51.380;-0.176;2023-03-14T00:54:36;98435.53;;;11.17
29701;BMP280;57917;51.380;-0.176;2023-03-14T01:00:31;98447.31;;;11.44
29701;BMP280;57917;51.380;-0.176;2023-03-14T01:06:31;98448.97;;;11.37
29701;BMP280;57917;51.380;-0.176;2023-03-14T01:12:20;98455.72;;;11.34
29701;BMP280;57917;51.380;-0.176;2023-03-14T01:18:10;98477.09;;;11.29
29701;BMP280;57917;51.380;-0.176;2023-03-14T01:23:58;98573.50;;;10.10
29701;BMP280;57917;51.380;-0.176;2023-03-14T01:29:45;98590.66;;;9.20
29701;BMP280;57917;51.380;-0.176;2023-03-14T01:35:52;98621.88;;;8.92
29701;BMP280;57917;51.380;-0.176;2023-03-14T01:41:40;98664.22;;;8.79
29701;BMP280;57917;51.380;-0.176;2023-03-14T01:47:29;98687.41;;;8.03
29701;BMP280;57917;51.380;-0.176;2023-03-14T01:53:17;98706.56;;;7.87
29701;BMP280;57917;51.380;-0.176;2023-03-14T01:59:09;98729.03;;;7.93
29701;BMP280;57917;51.380;-0.176;2023-03-14T02:04:58;98732.88;;;8.17
29701;BMP280;57917;51.380;-0.176;2023-03-14T02:10:51;98753.06;;;8.61
29701;BMP280;57917;51.380;-0.176;2023-03-14T02:16:44;98752.13;;;8.57
29701;BMP280;57917;51.380;-0.176;2023-03-14T02:22:46;98757.75;;;8.25
29701;BMP280;57917;51.380;-0.176;2023-03-14T02:28:33;98767.88;;;8.09
29701;BMP280;57917;51.380;-0.176;2023-03-14T02:34:22;98784.53;;;7.96
29701;BMP280;57917;51.380;-0.176;2023-03-14T02:40:09;98801.94;;;7.84
29701;BMP280;57917;51.380;-0.176;2023-03-14T02:46:00;98803.63;;;7.57
29701;BMP280;57917;51.380;-0.176;2023-03-14T02:51:49;98821.25;;;7.57
29701;BMP280;57917;51.380;-0.176;2023-03-14T02:57:36;98816.19;;;7.61
29701;BMP280;57917;51.380;-0.176;2023-03-14T03:03:23;98827.84;;;7.32
29701;BMP280;57917;51.380;-0.176;2023-03-14T03:09:10;98839.53;;;7.26
29701;BMP280;57917;51.380;-0.176;2023-03-14T03:14:57;98855.31;;;7.26
29701;BMP280;57917;51.380;-0.176;2023-03-14T03:20:44;98865.34;;;7.38
29701;BMP280;57917;51.380;-0.176;2023-03-14T03:26:30;98873.56;;;7.23
29701;BMP280;57917;51.380;-0.176;2023-03-14T03:32:17;98881.06;;;7.29
29701;BMP280;57917;51.380;-0.176;2023-03-14T03:38:04;98907.88;;;7.31
29701;BMP280;57917;51.380;-0.176;2023-03-14T03:43:55;98921.19;;;7.21
29701;BMP280;57917;51.380;-0.176;2023-03-14T03:49:42;98924.91;;;7.20
29701;BMP280;57917;51.380;-0.176;2023-03-14T03:55:30;98940.66;;;7.07
29701;BMP280;57917;51.380;-0.176;2023-03-14T04:01:18;98955.09;;;6.96
29701;BMP280;57917;51.380;-0.176;2023-03-14T04:07:08;98968.50;;;6.94
29701;BMP280;57917;51.380;-0.176;2023-03-14T04:12:56;98986.66;;;6.96
29701;BMP280;57917;51.380;-0.176;2023-03-14T04:18:46;98993.63;;;6.87
29701;BMP280;57917;51.380;-0.176;2023-03-14T04:24:34;99011.84;;;6.83
29701;BMP280;57917;51.380;-0.176;2023-03-14T04:30:21;99025.41;;;6.53
29701;BMP280;57917;51.380;-0.176;2023-03-14T04:36:15;99053.41;;;6.44
29701;BMP280;57917;51.380;-0.176;2023-03-14T04:42:03;99059.78;;;6.38
29701;BMP280;57917;51.380;-0.176;2023-03-14T04:47:49;99096.13;;;6.31
29701;BMP280;57917;51.380;-0.176;2023-03-14T04:53:38;99110.31;;;6.30
29701;BMP280;57917;51.380;-0.176;2023-03-14T04:59:29;99111.25;;;6.39
29701;BMP280;57917;51.380;-0.176;2023-03-14T05:05:23;99116.03;;;6.37
29701;BMP280;57917;51.380;-0.176;2023-03-14T05:11:37;99133.34;;;6.14
29701;BMP280;57917;51.380;-0.176;2023-03-14T05:17:47;99132.63;;;6.09
29701;BMP280;57917;51.380;-0.176;2023-03-14T05:23:47;99162.63;;;6.03
29701;BMP280;57917;51.380;-0.176;2023-03-14T05:29:54;99155.38;;;5.95
29701;BMP280;57917;51.380;-0.176;2023-03-14T05:35:59;99171.25;;;6.08
29701;BMP280;57917;51.380;-0.176;2023-03-14T05:42:08;99189.75;;;6.22
29701;BMP280;57917;51.380;-0.176;2023-03-14T05:48:30;99195.66;;;6.37
29701;BMP280;57917;51.380;-0.176;2023-03-14T05:54:52;99211.09;;;6.44
29701;BMP280;57917;51.380;-0.176;2023-03-14T06:01:09;99238.91;;;6.45
29701;BMP280;57917;51.380;-0.176;2023-03-14T06:07:12;99249.66;;;6.72
29701;BMP280;57917;51.380;-0.176;2023-03-14T06:13:00;99275.97;;;6.72
29701;BMP280;57917;51.380;-0.176;2023-03-14T06:18:47;99279.25;;;6.59
29701;BMP280;57917;51.380;-0.176;2023-03-14T06:24:40;99286.69;;;6.52
29701;BMP280;57917;51.380;-0.176;2023-03-14T06:30:28;99308.25;;;6.49
29701;BMP280;57917;51.380;-0.176;2023-03-14T06:36:16;99315.53;;;6.57
29701;BMP280;57917;51.380;-0.176;2023-03-14T06:42:06;99336.19;;;6.69
29701;BMP280;57917;51.380;-0.176;2023-03-14T06:47:53;99339.84;;;6.73
29701;BMP280;57917;51.380;-0.176;2023-03-14T06:53:45;99355.81;;;6.81
29701;BMP280;57917;51.380;-0.176;2023-03-14T06:59:37;99379.97;;;6.83
29701;BMP280;57917;51.380;-0.176;2023-03-14T07:05:25;99393.75;;;6.75
29701;BMP280;57917;51.380;-0.176;2023-03-14T07:11:17;99413.47;;;6.73
29701;BMP280;57917;51.380;-0.176;2023-03-14T07:17:05;99431.50;;;6.84
29701;BMP280;57917;51.380;-0.176;2023-03-14T07:22:52;99452.41;;;6.66
29701;BMP280;57917;51.380;-0.176;2023-03-14T07:28:56;99475.88;;;6.62
29701;BMP280;57917;51.380;-0.176;2023-03-14T07:34:43;99501.22;;;6.48
29701;BMP280;57917;51.380;-0.176;2023-03-14T07:40:30;99517.88;;;6.67
29701;BMP280;57917;51.380;-0.176;2023-03-14T07:46:17;99548.06;;;6.31
29701;BMP280;57917;51.380;-0.176;2023-03-14T07:52:04;99590.44;;;6.14
29701;BMP280;57917;51.380;-0.176;2023-03-14T07:58:12;99606.50;;;6.08
29701;BMP280;57917;51.380;-0.176;2023-03-14T08:04:25;99642.50;;;5.97
29701;BMP280;57917;51.380;-0.176;2023-03-14T08:10:13;99698.97;;;5.90
29701;BMP280;57917;51.380;-0.176;2023-03-14T08:16:08;99723.63;;;5.59
29701;BMP280;57917;51.380;-0.176;2023-03-14T08:21:55;99741.25;;;5.73
29701;BMP280;57917;51.380;-0.176;2023-03-14T08:27:42;99766.16;;;5.61
29701;BMP280;57917;51.380;-0.176;2023-03-14T08:33:30;99786.34;;;5.50
29701;BMP280;57917;51.380;-0.176;2023-03-14T08:39:17;99807.06;;;5.57
29701;BMP280;57917;51.380;-0.176;2023-03-14T08:45:07;99838.63;;;5.72
29701;BMP280;57917;51.380;-0.176;2023-03-14T08:51:12;99867.44;;;5.57
29701;BMP280;57917;51.380;-0.176;2023-03-14T08:57:00;99886.88;;;5.56
29701;BMP280;57917;51.380;-0.176;2023-03-14T09:02:47;99909.94;;;5.54
29701;BMP280;57917;51.380;-0.176;2023-03-14T09:08:34;99924.97;;;5.63
29701;BMP280;57917;51.380;-0.176;2023-03-14T09:14:24;99943.13;;;5.65
29701;BMP280;57917;51.380;-0.176;2023-03-14T09:26:54;100001.22;;;5.36
29701;BMP280;57917;51.380;-0.176;2023-03-14T09:32:47;100013.38;;;5.16
29701;BMP280;57917;51.380;-0.176;2023-03-14T09:38:34;100036.03;;;4.95
29701;BMP280;57917;51.380;-0.176;2023-03-14T09:44:31;100070.91;;;4.69
29701;BMP280;57917;51.380;-0.176;2023-03-14T09:50:19;100103.66;;;4.45
29701;BMP280;57917;51.380;-0.176;2023-03-14T09:56:14;100121.94;;;4.83
29701;BMP280;57917;51.380;-0.176;2023-03-14T10:08:25;100151.25;;;5.02
29701;BMP280;57917;51.380;-0.176;2023-03-14T10:14:35;100156.94;;;5.25
29701;BMP280;57917;51.380;-0.176;2023-03-14T10:20:30;100175.03;;;5.49
29701;BMP280;57917;51.380;-0.176;2023-03-14T10:26:39;100181.38;;;5.53
29701;BMP280;57917;51.380;-0.176;2023-03-14T10:32:36;100186.34;;;5.86
29701;BMP280;57917;51.380;-0.176;2023-03-14T10:38:27;100181.53;;;6.56
29701;BMP280;57917;51.380;-0.176;2023-03-14T10:44:17;100210.66;;;7.11
29701;BMP280;57917;51.380;-0.176;2023-03-14T10:50:30;100194.84;;;7.01
29701;BMP280;57917;51.380;-0.176;2023-03-14T10:56:24;100214.41;;;7.61
29701;BMP280;57917;51.380;-0.176;2023-03-14T11:02:45;100215.66;;;7.08
29701;BMP280;57917;51.380;-0.176;2023-03-14T11:43:17;100297.38;;;8.43
29701;BMP280;57917;51.380;-0.176;2023-03-14T11:49:32;100300.41;;;8.75
29701;BMP280;57917;51.380;-0.176;2023-03-14T11:55:34;100318.72;;;8.37
29701;BMP280;57917;51.380;-0.176;2023-03-14T12:13:54;100336.22;;;9.50
29701;BMP280;57917;51.380;-0.176;2023-03-14T12:20:18;100341.19;;;9.13
29701;BMP280;57917;51.380;-0.176;2023-03-14T12:32:23;100349.41;;;9.07
29701;BMP280;57917;51.380;-0.176;2023-03-14T12:50:20;100366.34;;;8.86
29701;BMP280;57917;51.380;-0.176;2023-03-14T12:56:19;100364.53;;;8.91
29701;BMP280;57917;51.380;-0.176;2023-03-14T13:13:49;100366.97;;;8.47
29701;BMP280;57917;51.380;-0.176;2023-03-14T13:19:38;100370.81;;;9.05
29701;BMP280;57917;51.380;-0.176;2023-03-14T13:25:33;100371.06;;;9.57
29701;BMP280;57917;51.380;-0.176;2023-03-14T13:31:25;100362.09;;;10.26
29701;BMP280;57917;51.380;-0.176;2023-03-14T13:37:22;100385.59;;;10.04
29701;BMP280;57917;51.380;-0.176;2023-03-14T13:43:23;100401.63;;;9.78
29701;BMP280;57917;51.380;-0.176;2023-03-14T13:49:32;100410.31;;;9.25
29701;BMP280;57917;51.380;-0.176;2023-03-14T13:56:01;100407.97;;;10.11
29701;BMP280;57917;51.380;-0.176;2023-03-14T14:02:22;100411.13;;;10.47
29701;BMP280;57917;51.380;-0.176;2023-03-14T14:08:14;100414.47;;;9.95
29701;BMP280;57917;51.380;-0.176;2023-03-14T14:14:01;100435.63;;;9.41
29701;BMP280;57917;51.380;-0.176;2023-03-14T14:19:50;100450.94;;;9.44
29701;BMP280;57917;51.380;-0.176;2023-03-14T14:25:39;100460.28;;;9.12
29701;BMP280;57917;51.380;-0.176;2023-03-14T14:31:28;100472.63;;;9.41
29701;BMP280;57917;51.380;-0.176;2023-03-14T14:37:22;100476.34;;;9.30
29701;BMP280;57917;51.380;-0.176;2023-03-14T14:43:17;100470.44;;;9.48
29701;BMP280;57917;51.380;-0.176;2023-03-14T14:49:13;100475.00;;;9.38
29701;BMP280;57917;51.380;-0.176;2023-03-14T14:55:01;100489.38;;;9.80
29701;BMP280;57917;51.380;-0.176;2023-03-14T15:06:39;100501.38;;;10.07
29701;BMP280;57917;51.380;-0.176;2023-03-14T15:13:07;100496.59;;;10.14
29701;BMP280;57917;51.380;-0.176;2023-03-14T15:20:12;100489.25;;;10.06
29701;BMP280;57917;51.380;-0.176;2023-03-14T15:27:24;100498.97;;;9.61
29701;BMP280;57917;51.380;-0.176;2023-03-14T15:41:17;100532.25;;;9.72
29701;BMP280;57917;51.380;-0.176;2023-03-14T15:47:13;100527.00;;;9.52
29701;BMP280;57917;51.380;-0.176;2023-03-14T15:53:00;100525.69;;;9.55
29701;BMP280;57917;51.380;-0.176;2023-03-14T15:58:47;100520.34;;;9.65
29701;BMP280;57917;51.380;-0.176;2023-03-14T16:04:34;100537.25;;;9.69
29701;BMP280;57917;51.380;-0.176;2023-03-14T16:10:21;100527.88;;;9.96
29701;BMP280;57917;51.380;-0.176;2023-03-14T16:16:09;100515.28;;;9.78
29701;BMP280;57917;51.380;-0.176;2023-03-14T16:22:02;100524.25;;;9.82
29701;BMP280;57917;51.380;-0.176;2023-03-14T16:27:49;100533.88;;;9.58
29701;BMP280;57917;51.380;-0.176;2023-03-14T16:33:54;100538.00;;;9.89
29701;BMP280;57917;51.380;-0.176;2023-03-14T16:39:41;100555.00;;;9.63
29701;BMP280;57917;51.380;-0.176;2023-03-14T16:45:49;100541.16;;;9.81
29701;BMP280;57917;51.380;-0.176;2023-03-14T16:51:36;100538.97;;;9.98
29701;BMP280;57917;51.380;-0.176;2023-03-14T16:57:24;100548.56;;;9.89
29701;BMP280;57917;51.380;-0.176;2023-03-14T17:03:14;100561.84;;;9.59
29701;BMP280;57917;51.380;-0.176;2023-03-14T17:09:05;100549.47;;;9.50
29701;BMP280;57917;51.380;-0.176;2023-03-14T17:14:52;100568.25;;;9.23
29701;BMP280;57917;51.380;-0.176;2023-03-14T17:20:39;100594.72;;;9.08
29701;BMP280;57917;51.380;-0.176;2023-03-14T17:26:27;100597.31;;;9.03
29701;BMP280;57917;51.380;-0.176;2023-03-14T17:32:15;100607.09;;;8.88
29701;BMP280;57917;51.380;-0.176;2023-03-14T17:38:03;100617.63;;;8.67
29701;BMP280;57917;51.380;-0.176;2023-03-14T17:43:49;100624.78;;;8.87
29701;BMP280;57917;51.380;-0.176;2023-03-14T17:49:36;100622.63;;;8.54
29701;BMP280;57917;51.380;-0.176;2023-03-14T17:55:27;100623.91;;;8.56
29701;BMP280;57917;51.380;-0.176;2023-03-14T18:01:18;100640.50;;;8.47
29701;BMP280;57917;51.380;-0.176;2023-03-14T18:07:05;100668.78;;;8.51
29701;BMP280;57917;51.380;-0.176;2023-03-14T18:12:53;100681.19;;;8.56
29701;BMP280;57917;51.380;-0.176;2023-03-14T18:19:19;100698.09;;;8.60
29701;BMP280;57917;51.380;-0.176;2023-03-14T18:25:09;100713.81;;;8.45
29701;BMP280;57917;51.380;-0.176;2023-03-14T18:38:24;100738.34;;;7.99
29701;BMP280;57917;51.380;-0.176;2023-03-14T18:51:16;100741.41;;;7.86
29701;BMP280;57917;51.380;-0.176;2023-03-14T18:57:14;100747.47;;;7.81
29701;BMP280;57917;51.380;-0.176;2023-03-14T19:03:09;100757.28;;;7.59
29701;BMP280;57917;51.380;-0.176;2023-03-14T19:08:56;100737.69;;;7.82
29701;BMP280;57917;51.380;-0.176;2023-03-14T19:14:46;100739.22;;;7.73
29701;BMP280;57917;51.380;-0.176;2023-03-14T19:20:40;100743.56;;;7.89
29701;BMP280;57917;51.380;-0.176;2023-03-14T19:26:27;100752.19;;;7.84
29701;BMP280;57917;51.380;-0.176;2023-03-14T19:32:17;100767.75;;;7.81
29701;BMP280;57917;51.380;-0.176;2023-03-14T19:38:10;100761.25;;;7.93
29701;BMP280;57917;51.380;-0.176;2023-03-14T19:44:23;100761.25;;;7.93
29701;BMP280;57917;51.380;-0.176;2023-03-14T19:50:20;100789.16;;;7.89
29701;BMP280;57917;51.380;-0.176;2023-03-14T19:56:09;100795.78;;;7.92
29701;BMP280;57917;51.380;-0.176;2023-03-14T20:02:03;100817.34;;;7.89
29701;BMP280;57917;51.380;-0.176;2023-03-14T20:07:50;100825.59;;;7.97
29701;BMP280;57917;51.380;-0.176;2023-03-14T20:13:51;100826.13;;;7.68
29701;BMP280;57917;51.380;-0.176;2023-03-14T20:19:41;100843.09;;;7.55
29701;BMP280;57917;51.380;-0.176;2023-03-14T20:25:58;100841.13;;;7.67
29701;BMP280;57917;51.380;-0.176;2023-03-14T20:38:41;100860.00;;;7.81
29701;BMP280;57917;51.380;-0.176;2023-03-14T20:44:44;100862.41;;;7.87
29701;BMP280;57917;51.380;-0.176;2023-03-14T20:51:00;100924.28;;;6.82
29701;BMP280;57917;51.380;-0.176;2023-03-14T21:04:55;100975.41;;;6.13
29701;BMP280;57917;51.380;-0.176;2023-03-14T21:11:37;100997.03;;;6.43
29701;BMP280;57917;51.380;-0.176;2023-03-14T21:17:52;100998.34;;;6.57
29701;BMP280;57917;51.380;-0.176;2023-03-14T21:32:13;101002.97;;;6.50
29701;BMP280;57917;51.380;-0.176;2023-03-14T21:38:05;101003.47;;;6.64
29701;BMP280;57917;51.380;-0.176;2023-03-14T22:06:29;101028.84;;;6.30
29701;BMP280;57917;51.380;-0.176;2023-03-14T22:12:19;101033.91;;;6.31
29701;BMP280;57917;51.380;-0.176;2023-03-14T22:24:19;101044.00;;;6.23
29701;BMP280;57917;51.380;-0.176;2023-03-14T22:30:30;101048.97;;;6.36
29701;BMP280;57917;51.380;-0.176;2023-03-14T22:36:17;101051.25;;;6.44
29701;BMP280;57917;51.380;-0.176;2023-03-14T22:42:06;101048.81;;;6.42
29701;BMP280;57917;51.380;-0.176;2023-03-14T22:48:03;101062.69;;;6.66
29701;BMP280;57917;51.380;-0.176;2023-03-14T22:53:51;101072.16;;;6.39
29701;BMP280;57917;51.380;-0.176;2023-03-14T22:59:38;101071.97;;;6.57
29701;BMP280;57917;51.380;-0.176;2023-03-14T23:05:28;101065.28;;;6.50
29701;BMP280;57917;51.380;-0.176;2023-03-14T23:11:15;101059.97;;;6.78
29701;BMP280;57917;51.380;-0.176;2023-03-14T23:17:02;101061.94;;;6.54
29701;BMP280;57917;51.380;-0.176;2023-03-14T23:22:51;101056.03;;;6.47
29701;BMP280;57917;51.380;-0.176;2023-03-14T23:28:42;101064.78;;;6.53
29701;BMP280;57917;51.380;-0.176;2023-03-14T23:34:32;101076.00;;;6.20
29701;BMP280;57917;51.380;-0.176;2023-03-14T23:40:19;101079.06;;;6.28
29701;BMP280;57917;51.380;-0.176;2023-03-14T23:46:06;101074.41;;;6.19
29701;BMP280;57917;51.380;-0.176;2023-03-14T23:51:53;101074.84;;;6.16
29701;BMP280;57917;51.380;-0.176;2023-03-14T23:57:52;101085.50;;;5.98
